createdAt,value
2018-09-11T00:01:57.723Z,69.63
2018-09-11T00:04:28.070Z,69.06
2018-09-11T00:06:58.644Z,69.26
2018-09-11T00:09:29.091Z,69.38
2018-09-11T00:12:00.567Z,69.20
2018-09-11T00:14:32.126Z,69.53
2018-09-11T00:17:03.045Z,69.32
2018-09-11T00:19:34.139Z,69.12
2018-09-11T00:22:04.610Z,69.80
2018-09-11T00:24:35.371Z,69.81
2018-09-11T00:27:07.919Z,70.29
2018-09-11T00:29:39.742Z,70.04
2018-09-11T00:32:11.630Z,69.60
2018-09-11T00:34:42.753Z,69.54
2018-09-11T00:37:13.044Z,69.37
2018-09-11T00:39:44.411Z,68.79
2018-09-11T00:42:16.771Z,69.20
2018-09-11T00:44:53.739Z,69.24
2018-09-11T00:47:27.378Z,69.33
2018-09-11T00:50:00.075Z,69.54
2018-09-11T00:52:31.221Z,69.70
2018-09-11T00:55:03.241Z,69.07
2018-09-11T00:57:34.659Z,68.29
2018-09-11T01:00:06.807Z,68.81
2018-09-11T01:02:37.904Z,68.69
2018-09-11T01:05:08.026Z,68.50
2018-09-11T01:07:39.986Z,68.99
2018-09-11T01:10:12.052Z,68.50
2018-09-11T01:12:43.052Z,69.15
2018-09-11T01:15:14.316Z,69.34
2018-09-11T01:17:44.514Z,69.42
2018-09-11T01:20:16.500Z,69.08
2018-09-11T01:22:46.524Z,68.99
2018-09-11T01:25:17.224Z,69.24
2018-09-11T01:27:47.770Z,68.90
2018-09-11T01:30:21.518Z,68.30
2018-09-11T01:32:52.902Z,69.11
2018-09-11T01:35:24.992Z,68.91
2018-09-11T01:37:56.276Z,70.16
2018-09-11T01:40:27.462Z,69.66
2018-09-11T01:42:59.706Z,69.24
2018-09-11T01:45:31.886Z,69.23
2018-09-11T01:48:03.077Z,69.28
2018-09-11T01:50:35.389Z,70.33
2018-09-11T01:53:06.404Z,68.63
2018-09-11T01:55:37.259Z,68.36
2018-09-11T01:58:08.549Z,69.14
2018-09-11T02:00:41.546Z,69.34
2018-09-11T02:03:13.336Z,69.80
2018-09-11T02:05:43.904Z,70.60
2018-09-11T02:08:14.617Z,70.63
2018-09-11T02:10:45.078Z,70.11
2018-09-11T02:13:16.495Z,70.02
2018-09-11T02:15:47.112Z,70.13
2018-09-11T02:18:17.272Z,72.31
2018-09-11T02:20:49.650Z,72.81
2018-09-11T02:23:19.770Z,73.14
2018-09-11T02:25:49.943Z,72.72
2018-09-11T02:28:21.722Z,72.18
2018-09-11T02:30:52.947Z,71.84
2018-09-11T02:33:25.727Z,72.52
2018-09-11T02:35:56.276Z,72.81
2018-09-11T02:38:29.593Z,73.45
2018-09-11T02:40:59.627Z,72.36
2018-09-11T02:43:30.463Z,71.71
2018-09-11T02:46:00.515Z,71.63
2018-09-11T02:48:32.302Z,71.88
2018-09-11T02:51:04.412Z,71.44
2018-09-11T02:53:35.630Z,72.45
2018-09-11T02:56:06.678Z,71.96
2018-09-11T02:58:39.502Z,71.91
2018-09-11T03:01:11.392Z,73.16
2018-09-11T03:03:44.264Z,73.72
2018-09-11T03:06:17.320Z,74.40
2018-09-11T03:08:51.958Z,74.47
2018-09-11T03:11:23.305Z,75.18
2018-09-11T03:13:54.459Z,74.80
2018-09-11T03:16:26.954Z,75.55
2018-09-11T03:18:57.766Z,76.67
2018-09-11T03:21:32.460Z,77.50
2018-09-11T03:24:02.541Z,77.81
2018-09-11T03:26:32.789Z,77.11
2018-09-11T03:29:02.941Z,76.90
2018-09-11T03:31:33.578Z,76.33
2018-09-11T03:34:03.779Z,77.02
2018-09-11T03:36:34.046Z,77.02
2018-09-11T03:39:07.025Z,77.06
2018-09-11T03:41:39.415Z,75.98
2018-09-11T03:44:09.503Z,76.00
2018-09-11T03:46:40.116Z,75.39
2018-09-11T03:49:10.640Z,76.36
2018-09-11T03:51:40.734Z,77.75
2018-09-11T03:54:12.969Z,78.43
2018-09-11T03:56:47.649Z,78.82
2018-09-11T03:59:21.643Z,77.80
2018-09-11T04:01:54.579Z,77.98
2018-09-11T04:04:28.043Z,78.90
2018-09-11T04:07:00.727Z,79.94
2018-09-11T04:09:33.743Z,79.26
2018-09-11T04:12:05.787Z,79.66
2018-09-11T04:14:36.035Z,79.92
2018-09-11T04:17:06.589Z,79.05
2018-09-11T04:19:37.719Z,79.50
2018-09-11T04:22:25.563Z,80.94
2018-09-11T04:25:08.523Z,80.41
2018-09-11T04:27:38.975Z,79.21
2018-09-11T04:30:10.196Z,79.85
2018-09-11T04:32:40.409Z,78.72
2018-09-11T04:35:10.586Z,78.75
2018-09-11T04:37:40.751Z,77.95
2018-09-11T04:40:13.493Z,79.24
2018-09-11T04:42:44.705Z,79.91
2018-09-11T04:48:07.219Z,79.42
2018-09-11T04:50:38.761Z,79.30
2018-09-11T04:53:09.970Z,80.09
2018-09-11T04:55:40.502Z,80.30
2018-09-11T04:58:11.203Z,79.09
2018-09-11T05:00:41.549Z,79.04
2018-09-11T05:03:12.695Z,78.62
2018-09-11T05:05:43.884Z,78.62
2018-09-11T05:08:14.153Z,79.14
2018-09-11T05:10:45.914Z,78.41
2018-09-11T05:13:17.030Z,79.30
2018-09-11T05:15:49.329Z,79.30
2018-09-11T05:18:19.555Z,78.87
2018-09-11T05:20:51.976Z,78.63
2018-09-11T05:23:22.146Z,77.64
2018-09-11T05:25:53.560Z,76.97
2018-09-11T05:28:24.118Z,77.69
2018-09-11T05:30:55.073Z,77.36
2018-09-11T05:33:27.963Z,77.23
2018-09-11T05:36:04.627Z,75.57
2018-09-11T05:38:38.402Z,75.87
2018-09-11T05:41:13.455Z,74.32
2018-09-11T05:43:48.062Z,74.31
2018-09-11T05:46:20.732Z,73.66
2018-09-11T05:48:55.586Z,73.87
2018-09-11T05:51:27.438Z,73.54
2018-09-11T05:53:58.670Z,73.86
2018-09-11T05:56:29.506Z,72.13
2018-09-11T05:58:59.996Z,71.68
2018-09-11T06:01:30.796Z,71.32
2018-09-11T06:04:01.278Z,69.97
2018-09-11T06:06:31.552Z,68.93
2018-09-11T06:09:01.944Z,68.49
2018-09-11T06:11:32.324Z,68.00
2018-09-11T06:14:04.444Z,67.14
2018-09-11T06:16:36.272Z,66.22
2018-09-11T06:19:07.205Z,66.62
2018-09-11T06:21:38.366Z,65.20
2018-09-11T06:24:09.726Z,64.91
2018-09-11T06:26:40.071Z,63.08
2018-09-11T06:29:11.541Z,63.51
2018-09-11T06:31:41.934Z,61.91
2018-09-11T06:34:12.956Z,61.58
2018-09-11T06:36:56.096Z,60.84
2018-09-11T06:39:31.209Z,59.96
2018-09-11T06:42:01.542Z,59.33
2018-09-11T06:44:33.102Z,58.81
2018-09-11T06:47:04.976Z,57.74
2018-09-11T06:49:37.005Z,57.99
2018-09-11T06:52:07.117Z,57.18
2018-09-11T06:54:39.354Z,56.54
2018-09-11T06:57:09.443Z,56.48
2018-09-11T06:59:40.492Z,54.41
2018-09-11T07:02:10.842Z,53.98
2018-09-11T07:04:40.927Z,53.25
2018-09-11T07:07:11.249Z,54.19
2018-09-11T07:09:42.411Z,53.81
2018-09-11T07:12:13.605Z,52.56
2018-09-11T07:14:44.354Z,52.06
2018-09-11T07:17:14.859Z,51.08
2018-09-11T07:19:45.935Z,52.23
2018-09-11T07:22:17.031Z,51.14
2018-09-11T07:24:48.482Z,51.44
2018-09-11T07:27:18.971Z,51.49
2018-09-11T07:29:49.496Z,51.44
2018-09-11T07:32:21.777Z,52.35
2018-09-11T07:34:51.881Z,52.76
2018-09-11T07:37:24.047Z,52.72
2018-09-11T07:39:55.180Z,52.38
2018-09-11T07:42:27.067Z,50.26
2018-09-11T07:44:57.408Z,49.99
2018-09-11T07:47:28.627Z,49.34
2018-09-11T07:49:58.910Z,48.20
2018-09-11T07:52:29.542Z,47.99
2018-09-11T07:54:59.849Z,47.29
2018-09-11T07:57:30.832Z,46.09
2018-09-11T08:00:01.765Z,46.08
2018-09-11T08:02:33.082Z,47.33
2018-09-11T08:05:04.534Z,46.43
2018-09-11T08:07:35.451Z,45.59
2018-09-11T08:10:05.753Z,44.88
2018-09-11T08:12:37.173Z,43.49
2018-09-11T08:15:09.882Z,43.82
2018-09-11T08:17:44.219Z,44.68
2018-09-11T08:20:14.663Z,44.73
2018-09-11T08:22:46.273Z,44.19
2018-09-11T08:25:17.413Z,43.44
2018-09-11T08:27:48.953Z,43.30
2018-09-11T08:30:21.745Z,42.11
2018-09-11T08:32:53.032Z,41.08
2018-09-11T08:35:25.252Z,40.65
2018-09-11T08:37:57.616Z,39.59
2018-09-11T08:40:29.473Z,39.46
2018-09-11T08:43:01.188Z,39.28
2018-09-11T08:45:31.501Z,38.78
2018-09-11T08:48:01.833Z,39.01
2018-09-11T08:50:32.186Z,38.79
2018-09-11T08:53:03.891Z,39.32
2018-09-11T08:55:35.062Z,38.32
2018-09-11T08:58:05.758Z,38.41
2018-09-11T09:00:36.429Z,38.25
2018-09-11T09:03:07.876Z,37.76
2018-09-11T09:05:39.290Z,38.40
2018-09-11T09:08:09.439Z,38.27
2018-09-11T09:10:39.474Z,38.46
2018-09-11T09:13:10.033Z,36.91
2018-09-11T09:15:40.226Z,37.38
2018-09-11T09:18:11.780Z,36.81
2018-09-11T09:20:42.937Z,34.46
2018-09-11T09:23:13.552Z,33.60
2018-09-11T09:25:45.281Z,33.47
2018-09-11T09:28:17.225Z,35.17
2018-09-11T09:30:47.301Z,33.60
2018-09-11T09:33:18.351Z,32.00
2018-09-11T09:36:00.638Z,30.58
2018-09-11T09:38:33.147Z,27.94
2018-09-11T09:41:04.083Z,27.77
2018-09-11T09:43:35.754Z,28.81
2018-09-11T09:46:15.168Z,27.95
2018-09-11T09:48:46.676Z,27.62
2018-09-11T09:51:17.673Z,27.21
2018-09-11T09:53:49.423Z,27.16
2018-09-11T09:56:21.656Z,28.32
2018-09-11T09:58:52.624Z,27.52
2018-09-11T10:01:28.142Z,27.97
2018-09-11T10:04:00.329Z,28.06
2018-09-11T10:06:30.626Z,26.36
2018-09-11T10:09:01.359Z,26.81
2018-09-11T10:11:31.826Z,28.06
2018-09-11T10:14:02.148Z,27.30
2018-09-11T10:16:38.740Z,28.40
2018-09-11T10:19:10.014Z,27.97
2018-09-11T10:21:40.387Z,27.51
2018-09-11T10:24:11.233Z,26.74
2018-09-11T10:26:41.694Z,26.61
2018-09-11T10:29:12.740Z,25.75
2018-09-11T10:31:43.817Z,25.48
2018-09-11T10:34:17.096Z,25.81
2018-09-11T10:36:57.962Z,25.60
2018-09-11T10:39:28.714Z,25.64
2018-09-11T10:41:59.106Z,26.24
2018-09-11T10:44:30.338Z,28.95
2018-09-11T10:47:00.418Z,29.34
2018-09-11T10:49:31.591Z,26.24
2018-09-11T10:52:02.073Z,25.10
2018-09-11T10:54:32.157Z,24.89
2018-09-11T10:57:03.546Z,25.67
2018-09-11T10:59:33.577Z,23.81
2018-09-11T11:02:03.599Z,25.49
2018-09-11T11:04:33.727Z,28.71
2018-09-11T11:07:13.320Z,27.00
2018-09-11T11:09:43.578Z,27.08
2018-09-11T11:12:13.960Z,25.62
2018-09-11T11:14:45.022Z,27.04
2018-09-11T11:17:16.228Z,26.03
2018-09-11T11:19:48.130Z,26.74
2018-09-11T11:22:18.706Z,28.35
2018-09-11T11:24:49.252Z,29.58
2018-09-11T11:27:19.658Z,27.41
2018-09-11T11:29:50.658Z,26.87
2018-09-11T11:32:21.298Z,26.19
2018-09-11T11:34:52.004Z,26.49
2018-09-11T11:37:23.746Z,26.73
2018-09-11T11:39:56.007Z,24.79
2018-09-11T11:42:43.275Z,21.34
2018-09-11T11:45:14.370Z,20.23
2018-09-11T11:47:45.353Z,19.54
2018-09-11T11:50:16.802Z,19.62
2018-09-11T11:52:47.513Z,17.75
2018-09-11T11:55:19.352Z,17.43
2018-09-11T11:57:49.743Z,16.58
2018-09-11T12:00:20.496Z,15.66
2018-09-11T12:02:54.695Z,15.22
2018-09-11T12:05:24.970Z,14.11
2018-09-11T12:07:55.219Z,15.83
2018-09-11T12:10:26.324Z,15.53
2018-09-11T12:12:57.515Z,15.92
2018-09-11T12:15:27.603Z,15.59
2018-09-11T12:17:58.493Z,17.35
2018-09-11T12:20:30.595Z,15.74
2018-09-11T12:23:01.279Z,16.23
2018-09-11T12:25:32.446Z,15.62
2018-09-11T12:28:02.868Z,14.82
2018-09-11T12:30:34.076Z,16.61
2018-09-11T12:33:05.164Z,17.74
2018-09-11T12:35:36.762Z,16.78
2018-09-11T12:38:07.162Z,16.56
2018-09-11T12:40:38.981Z,16.84
2018-09-11T12:43:10.019Z,16.19
2018-09-11T12:45:42.303Z,17.33
2018-09-11T12:48:13.056Z,17.39
2018-09-11T12:50:43.869Z,17.95
2018-09-11T12:53:14.276Z,19.00
2018-09-11T12:55:47.942Z,19.06
2018-09-11T12:58:19.118Z,18.29
2018-09-11T13:00:49.547Z,17.84
2018-09-11T13:03:22.423Z,17.04
2018-09-11T13:05:53.029Z,17.88
2018-09-11T13:08:23.629Z,19.43
2018-09-11T13:10:53.813Z,18.59
2018-09-11T13:13:24.224Z,18.60
2018-09-11T13:15:54.908Z,19.75
2018-09-11T13:18:25.265Z,20.15
2018-09-11T13:20:56.461Z,19.24
2018-09-11T13:23:27.705Z,19.67
2018-09-11T13:25:57.937Z,20.09
2018-09-11T13:28:29.453Z,20.33
2018-09-11T13:30:59.507Z,20.13
2018-09-11T13:33:30.671Z,20.08
2018-09-11T13:36:00.863Z,18.64
2018-09-11T13:38:32.609Z,18.57
2018-09-11T13:41:03.217Z,18.21
2018-09-11T13:43:33.989Z,18.12
2018-09-11T13:46:05.917Z,19.35
2018-09-11T13:48:36.087Z,18.94
2018-09-11T13:51:06.535Z,18.61
2018-09-11T13:53:38.025Z,17.76
2018-09-11T13:56:09.391Z,17.87
2018-09-11T13:58:39.729Z,18.75
2018-09-11T14:01:11.532Z,19.69
2018-09-11T14:03:42.089Z,19.86
2018-09-11T14:06:13.027Z,19.84
2018-09-11T14:08:45.155Z,18.53
2018-09-11T14:11:16.155Z,16.67
2018-09-11T14:13:47.689Z,16.36
2018-09-11T14:16:18.658Z,16.94
2018-09-11T14:18:51.153Z,18.08
2018-09-11T14:21:21.940Z,17.89
2018-09-11T14:23:53.293Z,17.74
2018-09-11T14:26:23.695Z,17.81
2018-09-11T14:28:54.140Z,16.92
2018-09-11T14:31:27.391Z,17.37
2018-09-11T14:33:59.055Z,18.31
2018-09-11T14:36:29.934Z,18.07
2018-09-11T14:39:01.707Z,17.66
2018-09-11T14:41:34.250Z,18.39
2018-09-11T14:44:05.492Z,18.17
2018-09-11T14:46:36.187Z,18.27
2018-09-11T14:49:07.124Z,18.96
2018-09-11T14:51:37.859Z,19.60
2018-09-11T14:54:08.516Z,19.45
2018-09-11T14:56:42.270Z,19.54
2018-09-11T14:59:12.792Z,19.89
2018-09-11T15:01:44.299Z,20.15
2018-09-11T15:04:14.473Z,19.72
2018-09-11T15:06:44.558Z,20.12
2018-09-11T15:09:15.666Z,20.31
2018-09-11T15:11:45.798Z,19.01
2018-09-11T15:14:16.134Z,20.60
2018-09-11T15:16:48.336Z,20.19
2018-09-11T15:19:18.890Z,20.88
2018-09-11T15:21:48.988Z,20.79
2018-09-11T15:24:21.469Z,20.26
2018-09-11T15:26:51.968Z,21.45
2018-09-11T15:29:22.280Z,20.25
2018-09-11T15:31:52.774Z,20.92
2018-09-11T15:34:23.060Z,21.93
2018-09-11T15:36:53.933Z,21.19
2018-09-11T15:39:24.548Z,20.34
2018-09-11T15:41:55.066Z,19.68
2018-09-11T15:44:27.121Z,19.95
2018-09-11T15:46:58.156Z,20.73
2018-09-11T15:49:29.048Z,22.53
2018-09-11T15:52:02.008Z,21.99
2018-09-11T15:54:32.277Z,22.22
2018-09-11T15:57:02.696Z,21.62
2018-09-11T15:59:33.281Z,20.70
2018-09-11T16:02:04.546Z,21.24
2018-09-11T16:04:35.253Z,20.84
2018-09-11T16:07:06.553Z,21.96
2018-09-11T16:09:37.026Z,20.89
2018-09-11T16:12:07.721Z,22.33
2018-09-11T16:14:38.784Z,22.07
2018-09-11T16:17:08.946Z,22.98
2018-09-11T16:19:40.618Z,23.23
2018-09-11T16:22:10.790Z,22.19
2018-09-11T16:24:42.776Z,22.61
2018-09-11T16:27:14.415Z,22.88
2018-09-11T16:29:56.731Z,23.41
2018-09-11T16:32:40.456Z,23.21
2018-09-11T16:35:23.112Z,23.59
2018-09-11T16:37:53.626Z,24.21
2018-09-11T16:40:24.784Z,24.63
2018-09-11T16:42:56.755Z,25.44
2018-09-11T16:45:31.771Z,25.45
2018-09-11T16:48:06.320Z,26.19
2018-09-11T16:50:36.599Z,26.43
2018-09-11T16:53:06.909Z,25.75
2018-09-11T16:55:37.889Z,26.04
2018-09-11T16:58:09.198Z,26.06
2018-09-11T17:00:44.053Z,27.36
2018-09-11T17:03:14.932Z,27.37
2018-09-11T17:05:46.377Z,27.33
2018-09-11T17:08:16.947Z,28.37
2018-09-11T17:10:47.959Z,29.05
2018-09-11T17:13:20.273Z,29.60
2018-09-11T17:15:51.919Z,29.24
2018-09-11T17:18:23.695Z,29.21
2018-09-11T17:20:55.233Z,30.26
2018-09-11T17:23:30.798Z,30.84
2018-09-11T17:26:02.731Z,30.44
2018-09-11T17:28:34.447Z,31.26
2018-09-11T17:31:12.700Z,32.33
2018-09-11T17:33:43.040Z,31.77
2018-09-11T17:36:13.201Z,32.71
2018-09-11T17:38:43.391Z,33.31
2018-09-11T17:41:13.542Z,33.84
2018-09-11T17:43:44.849Z,34.35
2018-09-11T17:46:15.751Z,34.02
2018-09-11T17:48:46.553Z,34.42
2018-09-11T17:58:06.665Z,36.08
2018-09-11T18:00:36.871Z,36.30
2018-09-11T18:03:08.178Z,36.73
2018-09-11T18:05:39.968Z,39.00
2018-09-11T18:08:10.802Z,39.84
2018-09-11T18:10:42.353Z,40.38
2018-09-11T18:13:14.064Z,41.50
2018-09-11T18:15:44.917Z,40.32
2018-09-11T18:18:20.389Z,40.29
2018-09-11T18:20:50.883Z,40.75
2018-09-11T18:23:21.295Z,40.91
2018-09-11T18:25:51.593Z,40.92
2018-09-11T18:28:21.843Z,40.71
2018-09-11T18:30:55.444Z,41.91
2018-09-11T18:33:26.124Z,41.69
2018-09-11T18:35:56.477Z,42.97
2018-09-11T18:38:27.715Z,42.76
2018-09-11T18:40:57.842Z,42.48
2018-09-11T18:43:28.955Z,42.14
2018-09-11T18:45:59.504Z,42.39
2018-09-11T18:48:30.549Z,43.71
2018-09-11T18:51:04.643Z,42.75
2018-09-11T18:53:36.759Z,42.26
2018-09-11T18:56:06.927Z,42.60
2018-09-11T18:58:37.600Z,42.56
2018-09-11T19:01:07.739Z,42.86
2018-09-11T19:03:37.901Z,43.41
2018-09-11T19:06:08.154Z,43.07
2018-09-11T19:08:39.163Z,44.59
2018-09-11T19:11:09.341Z,44.25
2018-09-11T19:13:39.316Z,44.09
2018-09-11T19:16:09.521Z,45.57
2018-09-11T19:18:39.909Z,46.83
2018-09-11T19:21:10.899Z,46.42
2018-09-11T19:23:42.013Z,48.73
2018-09-11T19:26:12.119Z,49.90
2018-09-11T19:28:42.283Z,49.78
2018-09-11T19:31:12.493Z,49.85
2018-09-11T19:33:43.980Z,49.78
2018-09-11T19:36:14.395Z,50.20
2018-09-11T19:38:45.160Z,49.81
2018-09-11T19:41:15.538Z,50.09
2018-09-11T19:43:45.483Z,51.06
2018-09-11T19:46:16.123Z,50.17
2018-09-11T19:48:47.263Z,49.88
2018-09-11T19:51:17.339Z,50.82
2018-09-11T19:53:47.593Z,50.61
2018-09-11T19:56:17.738Z,51.18
2018-09-11T19:58:51.038Z,49.70
2018-09-11T20:01:21.157Z,51.46
2018-09-11T20:03:53.888Z,53.40
2018-09-11T20:06:24.448Z,53.44
2018-09-11T20:08:54.586Z,52.98
2018-09-11T20:11:24.704Z,52.98
2018-09-11T20:13:54.794Z,52.90
2018-09-11T20:16:26.482Z,54.34
2018-09-11T20:18:56.677Z,55.09
2018-09-11T20:21:26.786Z,55.01
2018-09-11T20:23:56.910Z,55.34
2018-09-11T20:26:28.179Z,55.30
2018-09-11T20:28:58.299Z,56.04
2018-09-11T20:31:28.346Z,56.19
2018-09-11T20:33:59.490Z,56.12
2018-09-11T20:36:31.322Z,55.76
2018-09-11T20:39:02.955Z,56.46
2018-09-11T20:41:38.677Z,56.33
2018-09-11T20:44:10.756Z,56.54
2018-09-11T20:46:40.857Z,56.32
2018-09-11T20:49:11.814Z,56.69
2018-09-11T20:51:42.083Z,57.26
2018-09-11T20:54:13.821Z,56.91
2018-09-11T20:56:44.038Z,56.70
2018-09-11T20:59:15.112Z,56.88
2018-09-11T21:01:45.278Z,56.73
2018-09-11T21:04:16.488Z,57.53
2018-09-11T21:06:48.011Z,56.49
2018-09-11T21:09:18.544Z,57.49
2018-09-11T21:11:49.856Z,57.58
2018-09-11T21:14:20.094Z,58.56
2018-09-11T21:16:52.454Z,58.02
2018-09-11T21:19:27.435Z,58.13
2018-09-11T21:21:57.510Z,58.91
2018-09-11T21:24:28.286Z,57.86
2018-09-11T21:26:58.450Z,58.41
2018-09-11T21:29:30.542Z,58.92
2018-09-11T21:32:02.505Z,59.16
2018-09-11T21:34:33.024Z,59.18
2018-09-11T21:37:03.065Z,60.01
2018-09-11T21:39:35.101Z,60.05
2018-09-11T21:42:07.447Z,59.43
2018-09-11T21:44:38.547Z,60.12
2018-09-11T21:47:10.422Z,60.79
2018-09-11T21:49:40.468Z,61.50
2018-09-11T21:52:11.510Z,60.66
2018-09-11T21:54:41.961Z,61.35
2018-09-11T21:57:12.154Z,61.43
2018-09-11T21:59:42.857Z,61.56
2018-09-11T22:02:12.985Z,60.87
2018-09-11T22:04:44.317Z,61.41
2018-09-11T22:07:15.868Z,61.66
2018-09-11T22:09:46.079Z,61.11
2018-09-11T22:12:16.601Z,61.63
2018-09-11T22:14:47.503Z,61.89
2018-09-11T22:17:17.858Z,60.85
2018-09-11T22:19:49.124Z,60.82
2018-09-11T22:22:19.250Z,61.07
2018-09-11T22:24:49.907Z,61.77
2018-09-11T22:27:19.995Z,61.85
2018-09-11T22:29:51.532Z,61.71
2018-09-11T22:32:23.200Z,62.07
2018-09-11T22:34:53.243Z,61.92
2018-09-11T22:37:23.986Z,62.47
2018-09-11T22:39:54.258Z,62.20
2018-09-11T22:42:25.282Z,62.20
2018-09-11T22:44:55.945Z,62.42
2018-09-11T22:47:27.486Z,62.61
2018-09-11T22:49:57.942Z,62.62
2018-09-11T22:52:28.148Z,62.93
2018-09-11T22:54:58.357Z,63.00
2018-09-11T22:57:29.672Z,62.85
2018-09-11T23:00:00.904Z,63.30
2018-09-11T23:02:32.934Z,63.20
2018-09-11T23:05:03.216Z,64.13
2018-09-11T23:07:33.258Z,63.99
2018-09-11T23:10:05.236Z,63.94
2018-09-11T23:12:35.306Z,63.91
2018-09-11T23:15:05.541Z,64.95
2018-09-11T23:17:37.558Z,64.61
2018-09-11T23:20:08.216Z,65.31
2018-09-11T23:22:41.616Z,65.28
2018-09-11T23:25:11.910Z,65.17
2018-09-11T23:27:42.334Z,65.86
2018-09-11T23:30:14.284Z,65.94
2018-09-11T23:32:44.570Z,65.54
2018-09-11T23:35:16.717Z,66.04
2018-09-11T23:37:47.462Z,66.50
2018-09-11T23:40:17.926Z,66.06
2018-09-11T23:42:48.817Z,66.50
2018-09-11T23:45:18.854Z,66.25
2018-09-11T23:47:50.689Z,66.37
2018-09-11T23:50:21.081Z,66.28
2018-09-11T23:52:52.957Z,67.23
2018-09-11T23:55:23.999Z,67.07
2018-09-11T23:57:54.863Z,67.65
